createdAt,value
2023-05-10T00:00:26.046Z,11.8
2023-05-10T00:02:26.419Z,11.8
2023-05-10T00:04:27.404Z,11.8
2023-05-10T00:06:25.806Z,11.8
2023-05-10T00:08:25.233Z,11.8
2023-05-10T00:10:25.118Z,11.8
2023-05-10T00:12:24.858Z,11.8
2023-05-10T00:14:24.701Z,11.8
2023-05-10T00:18:24.362Z,11.8
2023-05-10T00:20:23.973Z,11.8
2023-05-10T00:22:23.661Z,11.8
2023-05-10T00:24:23.555Z,11.8
2023-05-10T00:26:23.220Z,11.8
2023-05-10T00:28:23.123Z,11.8
2023-05-10T00:30:22.847Z,11.8
2023-05-10T00:32:22.680Z,11.8
2023-05-10T00:36:22.152Z,11.8
2023-05-10T00:38:21.993Z,11.8
2023-05-10T00:42:22.263Z,11.8
2023-05-10T00:44:21.259Z,11.8
2023-05-10T00:46:21.889Z,11.8
2023-05-10T00:50:21.109Z,11.8
2023-05-10T00:52:20.574Z,11.8
2023-05-10T00:54:20.612Z,11.8
2023-05-10T00:56:22.858Z,11.8
2023-05-10T00:58:19.809Z,11.8
2023-05-10T01:02:19.471Z,11.8
2023-05-10T01:04:20.089Z,11.8
2023-05-10T01:06:18.952Z,11.8
2023-05-10T01:08:19.556Z,11.8
2023-05-10T01:10:18.855Z,11.8
2023-05-10T01:12:18.449Z,11.8
2023-05-10T01:14:19.377Z,11.8
2023-05-10T01:16:18.034Z,11.8
2023-05-10T01:18:20.795Z,11.8
2023-05-10T01:20:17.865Z,11.8
2023-05-10T01:22:37.034Z,11.8
2023-05-10T01:24:36.612Z,11.8
2023-05-10T01:26:33.976Z,11.8
2023-05-10T01:28:35.771Z,11.8
2023-05-10T01:30:35.213Z,11.8
2023-05-10T01:32:25.086Z,11.8
2023-05-10T01:34:20.881Z,11.8
2023-05-10T01:36:26.074Z,11.8
2023-05-10T01:38:18.923Z,11.8
2023-05-10T01:40:23.507Z,11.8
2023-05-10T01:42:19.928Z,11.8
2023-05-10T01:46:17.748Z,11.8
2023-05-10T01:48:15.368Z,11.8
2023-05-10T01:50:17.461Z,11.8
2023-05-10T01:52:19.222Z,11.8
2023-05-10T01:54:17.539Z,11.9
2023-05-10T01:56:14.442Z,11.9
2023-05-10T01:58:16.626Z,11.8
2023-05-10T02:00:15.539Z,11.9
2023-05-10T02:02:15.354Z,11.9
2023-05-10T02:04:16.721Z,11.8
2023-05-10T02:06:16.171Z,11.8
2023-05-10T02:08:14.640Z,11.8
2023-05-10T02:10:13.567Z,11.8
2023-05-10T02:12:14.320Z,11.8
2023-05-10T02:14:13.173Z,11.8
2023-05-10T02:16:13.527Z,11.8
2023-05-10T02:18:13.642Z,11.8
2023-05-10T02:20:12.637Z,11.8
2023-05-10T02:22:12.150Z,11.7
2023-05-10T02:24:11.737Z,11.8
2023-05-10T02:26:12.055Z,11.8
2023-05-10T02:28:13.129Z,11.7
2023-05-10T02:30:11.572Z,11.7
2023-05-10T02:32:11.310Z,11.7
2023-05-10T02:34:11.143Z,11.7
2023-05-10T02:36:10.678Z,11.7
2023-05-10T02:38:11.740Z,11.7
2023-05-10T02:40:11.489Z,11.8
2023-05-10T02:44:09.715Z,11.7
2023-05-10T02:46:08.652Z,11.8
2023-05-10T02:48:08.288Z,11.7
2023-05-10T02:50:08.516Z,11.7
2023-05-10T02:52:09.084Z,11.7
2023-05-10T02:54:12.024Z,11.8
2023-05-10T02:56:14.122Z,11.8
2023-05-10T02:58:07.275Z,11.7
2023-05-10T03:00:07.567Z,11.8
2023-05-10T03:02:07.118Z,11.8
2023-05-10T03:04:07.212Z,11.8
2023-05-10T03:06:06.318Z,11.7
2023-05-10T03:08:06.429Z,11.7
2023-05-10T03:10:06.605Z,11.7
2023-05-10T03:12:11.711Z,11.8
2023-05-10T03:14:16.752Z,11.7
2023-05-10T03:16:09.413Z,11.7
2023-05-10T03:20:11.572Z,11.7
2023-05-10T03:22:10.437Z,11.8
2023-05-10T03:24:08.137Z,11.8
2023-05-10T03:26:04.912Z,11.7
2023-05-10T03:28:04.935Z,11.7
2023-05-10T03:30:05.476Z,11.8
2023-05-10T03:32:04.077Z,11.7
2023-05-10T03:34:03.654Z,11.7
2023-05-10T03:38:02.953Z,11.7
2023-05-10T03:40:03.336Z,11.7
2023-05-10T03:42:02.768Z,11.7
2023-05-10T03:44:02.498Z,11.7
2023-05-10T03:46:02.419Z,11.7
2023-05-10T03:48:02.053Z,11.7
2023-05-10T03:50:02.470Z,11.6
2023-05-10T03:52:01.585Z,11.7
2023-05-10T03:54:01.288Z,11.7
2023-05-10T03:56:01.216Z,11.7
2023-05-10T03:58:00.891Z,11.6
2023-05-10T04:00:00.921Z,11.6
2023-05-10T04:02:00.517Z,11.5
2023-05-10T04:04:00.522Z,11.5
2023-05-10T04:06:00.934Z,11.5
2023-05-10T04:08:00.034Z,11.5
2023-05-10T04:09:59.643Z,11.5
2023-05-10T04:13:59.331Z,11.5
2023-05-10T04:15:59.450Z,11.4
2023-05-10T04:17:58.997Z,11.5
2023-05-10T04:19:58.616Z,11.4
2023-05-10T04:21:59.009Z,11.4
2023-05-10T04:23:58.337Z,11.4
2023-05-10T04:26:00.507Z,11.4
2023-05-10T04:27:58.076Z,11.4
2023-05-10T04:31:57.728Z,11.4
2023-05-10T04:33:57.254Z,11.4
2023-05-10T04:35:57.218Z,11.4
2023-05-10T04:37:56.817Z,11.3
2023-05-10T04:39:56.676Z,11.3
2023-05-10T04:41:56.329Z,11.3
2023-05-10T04:43:56.492Z,11.4
2023-05-10T04:45:56.532Z,11.4
2023-05-10T04:47:55.663Z,11.3
2023-05-10T04:51:55.500Z,11.3
2023-05-10T04:54:05.165Z,11.4
2023-05-10T04:55:55.052Z,11.3
2023-05-10T04:57:56.759Z,11.3
2023-05-10T04:59:54.488Z,11.3
2023-05-10T05:01:54.242Z,11.3
2023-05-10T05:03:54.474Z,11.4
2023-05-10T05:05:53.805Z,11.3
2023-05-10T05:07:53.611Z,11.3
2023-05-10T05:09:53.292Z,11.4
2023-05-10T05:11:53.369Z,11.4
2023-05-10T05:13:53.161Z,11.3
2023-05-10T05:15:53.436Z,11.4
2023-05-10T05:17:52.716Z,11.4
2023-05-10T05:19:52.501Z,11.4
2023-05-10T05:21:52.066Z,11.4
2023-05-10T05:23:51.885Z,11.4
2023-05-10T05:25:51.971Z,11.4
2023-05-10T05:27:51.466Z,11.5
2023-05-10T05:29:52.865Z,11.5
2023-05-10T05:31:51.926Z,11.5
2023-05-10T05:33:51.111Z,11.4
2023-05-10T05:37:50.714Z,11.6
2023-05-10T05:39:50.432Z,11.6
2023-05-10T05:41:50.135Z,11.6
2023-05-10T05:43:50.043Z,11.6
2023-05-10T05:45:49.998Z,11.7
2023-05-10T05:49:49.441Z,11.6
2023-05-10T05:51:49.573Z,11.6
2023-05-10T05:53:49.003Z,11.6
2023-05-10T05:55:53.074Z,11.6
2023-05-10T05:57:48.405Z,11.6
2023-05-10T06:01:48.334Z,11.6
2023-05-10T06:03:48.025Z,11.6
2023-05-10T06:05:47.843Z,11.7
2023-05-10T06:07:47.546Z,11.7
2023-05-10T06:09:47.298Z,11.7
2023-05-10T06:11:47.258Z,11.6
2023-05-10T06:13:47.086Z,11.7
2023-05-10T06:15:46.486Z,11.7
2023-05-10T06:17:47.208Z,11.8
2023-05-10T06:19:46.227Z,11.8
2023-05-10T06:21:45.837Z,11.7
2023-05-10T06:23:45.594Z,11.7
2023-05-10T06:25:45.597Z,11.7
2023-05-10T06:27:49.045Z,11.7
2023-05-10T06:29:44.944Z,11.7
2023-05-10T06:31:44.807Z,11.7
2023-05-10T06:33:44.694Z,11.7
2023-05-10T06:35:44.312Z,11.8
2023-05-10T06:37:44.104Z,11.8
2023-05-10T06:39:43.858Z,11.9
2023-05-10T06:41:43.858Z,11.9
2023-05-10T06:43:43.596Z,11.9
2023-05-10T06:47:43.430Z,12.0
2023-05-10T06:49:42.946Z,12.0
2023-05-10T06:51:42.569Z,12.0
2023-05-10T06:53:42.419Z,12.0
2023-05-10T06:55:42.983Z,12.1
2023-05-10T06:57:42.164Z,12.1
2023-05-10T06:59:41.742Z,12.1
2023-05-10T07:01:41.698Z,12.1
2023-05-10T07:03:41.415Z,12.2
2023-05-10T07:05:41.798Z,12.2
2023-05-10T07:07:41.087Z,12.3
2023-05-10T07:09:40.893Z,12.3
2023-05-10T07:11:40.706Z,12.3
2023-05-10T07:13:44.001Z,12.3
2023-05-10T07:15:40.178Z,12.2
2023-05-10T07:17:41.238Z,12.3
2023-05-10T07:19:39.802Z,12.4
2023-05-10T07:21:42.492Z,12.4
2023-05-10T07:23:39.430Z,12.5
2023-05-10T07:25:39.175Z,12.4
2023-05-10T07:27:39.060Z,12.4
2023-05-10T07:31:38.591Z,12.4
2023-05-10T07:33:38.460Z,12.3
2023-05-10T07:35:38.364Z,12.3
2023-05-10T07:37:37.922Z,12.3
2023-05-10T07:39:37.720Z,12.3
2023-05-10T07:41:37.662Z,12.2
2023-05-10T07:43:37.441Z,12.2
2023-05-10T07:45:37.134Z,12.1
2023-05-10T07:47:36.979Z,12.1
2023-05-10T07:49:36.804Z,12.1
2023-05-10T07:51:36.468Z,12.0
2023-05-10T07:53:37.169Z,12.1
2023-05-10T07:55:36.086Z,12.1
2023-05-10T07:57:36.383Z,12.0
2023-05-10T07:59:35.801Z,12.1
2023-05-10T08:01:35.497Z,12.0
2023-05-10T08:03:35.444Z,12.0
2023-05-10T08:07:35.258Z,11.9
2023-05-10T08:09:34.650Z,11.9
2023-05-10T08:11:35.444Z,11.8
2023-05-10T08:13:34.347Z,11.8
2023-05-10T08:15:34.133Z,11.8
2023-05-10T08:17:33.864Z,11.8
2023-05-10T08:19:33.544Z,11.8
2023-05-10T08:21:33.499Z,11.7
2023-05-10T08:23:33.360Z,11.8
2023-05-10T08:25:33.079Z,11.8
2023-05-10T08:27:32.779Z,11.8
2023-05-10T08:29:38.613Z,11.7
2023-05-10T08:31:32.448Z,11.8
2023-05-10T08:33:32.341Z,11.7
2023-05-10T08:35:33.203Z,11.7
2023-05-10T08:37:32.950Z,11.6
2023-05-10T08:39:34.343Z,11.7
2023-05-10T08:41:33.560Z,11.8
2023-05-10T08:43:31.813Z,11.7
2023-05-10T08:47:30.844Z,11.7
2023-05-10T08:49:31.651Z,11.7
2023-05-10T08:51:35.679Z,11.8
2023-05-10T08:53:33.151Z,11.8
2023-05-10T08:55:30.566Z,11.9
2023-05-10T08:57:29.722Z,11.9
2023-05-10T08:59:30.119Z,11.9
2023-05-10T09:01:31.985Z,12.0
2023-05-10T09:03:30.471Z,12.0
2023-05-10T09:05:29.213Z,12.0
2023-05-10T09:07:28.792Z,11.9
2023-05-10T09:09:29.240Z,12.0
2023-05-10T09:11:29.091Z,12.0
2023-05-10T09:13:28.424Z,12.0
2023-05-10T09:15:28.004Z,12.1
2023-05-10T09:17:29.888Z,12.1
2023-05-10T09:19:28.171Z,12.1
2023-05-10T09:21:27.361Z,12.1
2023-05-10T09:23:32.129Z,12.1
2023-05-10T09:25:27.164Z,12.1
2023-05-10T09:27:27.013Z,12.1
2023-05-10T09:29:26.354Z,12.1
2023-05-10T09:31:43.964Z,12.2
2023-05-10T09:33:26.074Z,12.1
2023-05-10T09:35:29.606Z,12.2
2023-05-10T09:37:29.793Z,12.2
2023-05-10T09:39:33.371Z,12.3
2023-05-10T09:41:25.703Z,12.3
2023-05-10T09:43:24.952Z,12.3
2023-05-10T09:45:26.895Z,12.3
2023-05-10T09:49:24.861Z,12.4
2023-05-10T09:51:26.852Z,12.4
2023-05-10T09:53:23.833Z,12.5
2023-05-10T09:55:25.764Z,12.4
2023-05-10T09:57:24.890Z,12.4
2023-05-10T10:03:24.309Z,12.6
2023-05-10T10:05:28.380Z,12.6
2023-05-10T10:07:24.818Z,12.7
2023-05-10T10:09:22.422Z,12.7
2023-05-10T10:11:23.657Z,12.8
2023-05-10T10:13:21.851Z,12.8
2023-05-10T10:15:23.355Z,12.7
2023-05-10T10:19:22.065Z,12.8
2023-05-10T10:21:21.826Z,12.7
2023-05-10T10:23:20.816Z,12.7
2023-05-10T10:25:21.955Z,12.9
2023-05-10T10:29:26.099Z,12.9
2023-05-10T10:33:36.480Z,13.0
2023-05-10T10:37:19.431Z,13.0
2023-05-10T10:39:20.505Z,13.0
2023-05-10T10:41:28.778Z,13.0
2023-05-10T10:43:23.043Z,12.9
2023-05-10T10:45:19.336Z,12.9
2023-05-10T10:47:24.508Z,12.9
2023-05-10T10:49:18.070Z,12.9
2023-05-10T10:51:17.864Z,13.0
2023-05-10T10:53:17.741Z,12.9
2023-05-10T10:55:19.347Z,13.0
2023-05-10T11:05:25.971Z,13.6
2023-05-10T11:07:17.698Z,13.6
2023-05-10T11:09:17.447Z,13.7
2023-05-10T11:11:16.130Z,13.8
2023-05-10T11:13:15.835Z,13.6
2023-05-10T11:15:16.143Z,13.8
2023-05-10T11:17:24.002Z,13.9
2023-05-10T11:19:17.003Z,13.9
2023-05-10T11:21:15.449Z,14.0
2023-05-10T11:23:15.898Z,14.2
2023-05-10T11:25:14.888Z,14.6
2023-05-10T11:27:14.950Z,14.3
2023-05-10T11:29:14.484Z,14.5
2023-05-10T11:31:15.169Z,14.4
2023-05-10T11:33:16.510Z,14.4
2023-05-10T11:37:13.840Z,14.6
2023-05-10T11:39:13.711Z,14.6
2023-05-10T11:43:13.574Z,14.7
2023-05-10T11:45:13.172Z,14.9
2023-05-10T11:47:12.970Z,15.0
2023-05-10T11:49:13.359Z,15.0
2023-05-10T11:51:12.884Z,14.9
2023-05-10T11:57:12.386Z,14.7
2023-05-10T11:59:14.981Z,14.8
2023-05-10T12:01:11.913Z,14.7
2023-05-10T12:05:11.802Z,14.8
2023-05-10T12:07:11.533Z,14.8
2023-05-10T12:15:12.539Z,14.8
2023-05-10T12:17:11.866Z,14.9
2023-05-10T12:19:10.810Z,14.9
2023-05-10T12:21:11.701Z,15.3
2023-05-10T12:27:09.896Z,14.9
2023-05-10T12:29:15.543Z,15.0
2023-05-10T12:31:09.533Z,15.1
2023-05-10T12:33:10.704Z,15.1
2023-05-10T12:35:09.366Z,14.9
2023-05-10T12:37:09.045Z,14.8
2023-05-10T12:39:08.934Z,14.9
2023-05-10T12:41:10.577Z,14.9
2023-05-10T12:43:08.614Z,15.0
2023-05-10T12:45:09.351Z,15.2
2023-05-10T12:47:08.372Z,15.1
2023-05-10T12:49:09.454Z,15.1
2023-05-10T12:51:09.491Z,15.2
2023-05-10T12:53:08.493Z,15.1
2023-05-10T12:55:08.255Z,15.2
2023-05-10T12:57:07.730Z,15.3
2023-05-10T12:59:07.467Z,15.3
2023-05-10T13:03:07.321Z,15.2
2023-05-10T13:05:07.364Z,15.3
2023-05-10T13:07:07.192Z,15.2
2023-05-10T13:09:07.039Z,15.2
2023-05-10T13:11:07.513Z,15.1
2023-05-10T13:13:07.504Z,15.2
2023-05-10T13:15:07.904Z,15.1
2023-05-10T13:17:06.901Z,15.3
2023-05-10T13:19:06.438Z,15.3
2023-05-10T13:21:06.040Z,15.4
2023-05-10T13:23:05.972Z,15.4
2023-05-10T13:25:05.912Z,15.5
2023-05-10T13:29:05.617Z,15.5
2023-05-10T13:31:05.380Z,15.5
2023-05-10T13:33:05.304Z,15.4
2023-05-10T13:35:06.774Z,15.4
2023-05-10T13:37:04.978Z,15.3
2023-05-10T13:43:04.812Z,15.3
2023-05-10T13:47:04.845Z,15.2
2023-05-10T13:49:04.294Z,15.2
2023-05-10T13:51:04.174Z,15.3
2023-05-10T13:53:04.034Z,15.3
2023-05-10T13:55:04.341Z,15.3
2023-05-10T13:57:04.491Z,15.3
2023-05-10T13:59:03.586Z,15.2
2023-05-10T14:01:04.657Z,15.2
2023-05-10T14:03:04.894Z,15.2
2023-05-10T14:05:03.903Z,15.2
2023-05-10T14:07:03.234Z,15.2
2023-05-10T14:09:02.928Z,15.3
2023-05-10T14:13:03.220Z,15.3
2023-05-10T14:15:05.758Z,15.2
2023-05-10T14:17:02.347Z,15.3
2023-05-10T14:19:02.827Z,15.3
2023-05-10T14:21:02.441Z,15.4
2023-05-10T14:23:02.379Z,15.3
2023-05-10T14:25:01.881Z,15.2
2023-05-10T14:27:01.749Z,15.3
2023-05-10T14:29:01.660Z,15.4
2023-05-10T14:33:02.615Z,15.4
2023-05-10T14:35:01.755Z,15.3
2023-05-10T14:37:01.333Z,15.2
2023-05-10T14:39:01.121Z,15.3
2023-05-10T14:41:01.281Z,15.4
2023-05-10T14:45:00.663Z,15.3
2023-05-10T14:47:00.658Z,15.3
2023-05-10T14:49:00.483Z,15.4
2023-05-10T14:53:00.204Z,15.3
2023-05-10T14:55:01.245Z,15.3
2023-05-10T14:59:00.202Z,15.3
2023-05-10T15:00:59.785Z,15.3
2023-05-10T15:02:59.711Z,15.2
2023-05-10T15:07:00.040Z,15.1
2023-05-10T15:08:59.834Z,15.0
2023-05-10T15:14:59.194Z,15.1
2023-05-10T15:16:59.013Z,15.1
2023-05-10T15:18:58.856Z,15.1
2023-05-10T15:20:58.521Z,15.0
2023-05-10T15:22:58.375Z,15.0
2023-05-10T15:26:58.225Z,15.0
2023-05-10T15:28:58.431Z,15.0
2023-05-10T15:32:58.097Z,14.9
2023-05-10T15:34:58.386Z,14.8
2023-05-10T15:36:57.562Z,14.9
2023-05-10T15:38:57.486Z,14.9
2023-05-10T15:40:57.506Z,15.0
2023-05-10T15:42:57.169Z,15.0
2023-05-10T15:44:57.437Z,15.1
2023-05-10T15:46:56.947Z,15.1
2023-05-10T15:48:57.538Z,15.1
2023-05-10T15:50:56.866Z,15.1
2023-05-10T15:52:56.562Z,15.0
2023-05-10T15:54:56.583Z,14.9
2023-05-10T15:56:56.465Z,14.8
2023-05-10T15:58:56.288Z,14.7
2023-05-10T16:00:56.884Z,14.5
2023-05-10T16:02:56.037Z,14.6
2023-05-10T16:04:56.004Z,14.4
2023-05-10T16:06:55.708Z,14.3
2023-05-10T16:08:55.925Z,14.1
2023-05-10T16:10:55.777Z,13.8
2023-05-10T16:12:55.614Z,13.8
2023-05-10T16:14:55.629Z,13.9
2023-05-10T16:16:55.341Z,13.9
2023-05-10T16:18:55.787Z,13.8
2023-05-10T16:20:54.949Z,13.7
2023-05-10T16:22:55.032Z,13.6
2023-05-10T16:24:55.686Z,13.6
2023-05-10T16:26:54.309Z,13.6
2023-05-10T16:28:54.208Z,13.5
2023-05-10T16:30:54.060Z,13.4
2023-05-10T16:32:54.553Z,13.4
2023-05-10T16:34:53.851Z,13.4
2023-05-10T16:38:53.503Z,13.3
2023-05-10T16:40:53.362Z,13.3
2023-05-10T16:42:53.223Z,13.2
2023-05-10T16:44:53.085Z,13.3
2023-05-10T16:46:53.787Z,13.3
2023-05-10T16:48:52.972Z,13.3
2023-05-10T16:50:52.865Z,13.3
2023-05-10T16:52:52.422Z,13.4
2023-05-10T16:56:52.245Z,13.4
2023-05-10T16:58:52.987Z,13.2
2023-05-10T17:00:52.083Z,13.3
2023-05-10T17:02:52.414Z,13.2
2023-05-10T17:04:53.937Z,13.1
2023-05-10T17:06:51.284Z,13.1
2023-05-10T17:08:51.145Z,13.2
2023-05-10T17:10:50.953Z,13.2
2023-05-10T17:12:52.627Z,13.1
2023-05-10T17:14:50.842Z,13.2
2023-05-10T17:16:52.136Z,13.1
2023-05-10T17:18:50.759Z,13.1
2023-05-10T17:20:50.121Z,13.1
2023-05-10T17:26:49.756Z,13.1
2023-05-10T17:28:49.445Z,13.1
2023-05-10T17:30:55.532Z,13.0
2023-05-10T17:34:48.885Z,12.9
2023-05-10T17:36:48.715Z,13.0
2023-05-10T17:38:49.475Z,13.0
2023-05-10T17:40:48.413Z,13.0
2023-05-10T17:42:48.384Z,12.9
2023-05-10T17:44:47.956Z,12.9
2023-05-10T17:46:47.737Z,12.9
2023-05-10T17:48:47.752Z,12.9
2023-05-10T17:50:48.800Z,12.9
2023-05-10T17:52:47.606Z,13.0
2023-05-10T17:56:46.989Z,12.9
2023-05-10T17:58:46.859Z,12.9
2023-05-10T18:00:46.607Z,12.9
2023-05-10T18:02:46.357Z,12.9
2023-05-10T18:04:48.309Z,12.9
2023-05-10T18:06:46.208Z,12.9
2023-05-10T18:10:45.699Z,12.9
2023-05-10T18:12:45.698Z,12.9
2023-05-10T18:14:45.682Z,12.9
2023-05-10T18:16:45.244Z,12.8
2023-05-10T18:18:45.035Z,12.8
2023-05-10T18:20:45.362Z,12.9
2023-05-10T18:22:44.521Z,12.8
2023-05-10T18:24:45.966Z,12.8
2023-05-10T18:26:44.838Z,12.8
2023-05-10T18:28:44.147Z,12.7
2023-05-10T18:32:44.343Z,12.7
2023-05-10T18:34:43.651Z,12.6
2023-05-10T18:36:43.446Z,12.5
2023-05-10T18:38:44.112Z,12.6
2023-05-10T18:40:43.021Z,12.6
2023-05-10T18:42:43.181Z,12.5
2023-05-10T18:46:42.691Z,12.5
2023-05-10T18:48:42.438Z,12.5
2023-05-10T18:52:42.360Z,12.6
2023-05-10T18:54:42.004Z,12.5
2023-05-10T18:56:44.100Z,12.4
2023-05-10T18:58:41.573Z,12.4
2023-05-10T19:00:42.305Z,12.4
2023-05-10T19:02:41.392Z,12.3
2023-05-10T19:04:41.170Z,12.3
2023-05-10T19:06:40.920Z,12.3
2023-05-10T19:08:40.657Z,12.4
2023-05-10T19:10:40.603Z,12.2
2023-05-10T19:14:40.311Z,12.1
2023-05-10T19:16:40.028Z,12.2
2023-05-10T19:18:40.423Z,12.2
2023-05-10T19:20:42.255Z,12.1
2023-05-10T19:24:39.248Z,12.1
2023-05-10T19:26:39.162Z,12.1
2023-05-10T19:28:39.167Z,12.1
2023-05-10T19:30:38.728Z,12.1
2023-05-10T19:32:38.507Z,12.0
2023-05-10T19:34:38.275Z,12.1
2023-05-10T19:36:38.184Z,12.0
2023-05-10T19:38:38.156Z,12.1
2023-05-10T19:40:37.898Z,12.1
2023-05-10T19:42:37.569Z,12.0
2023-05-10T19:44:37.379Z,12.1
2023-05-10T19:46:37.170Z,12.1
2023-05-10T19:48:38.012Z,12.0
2023-05-10T19:50:37.336Z,12.1
2023-05-10T19:52:36.854Z,12.1
2023-05-10T19:54:37.165Z,12.2
2023-05-10T19:56:36.381Z,12.3
2023-05-10T19:58:36.453Z,12.3
2023-05-10T20:00:36.834Z,12.2
2023-05-10T20:02:35.743Z,12.2
2023-05-10T20:06:35.641Z,12.2
2023-05-10T20:08:35.357Z,12.2
2023-05-10T20:10:34.987Z,12.2
2023-05-10T20:12:35.483Z,12.1
2023-05-10T20:14:34.739Z,12.1
2023-05-10T20:16:34.584Z,12.1
2023-05-10T20:20:34.335Z,12.1
2023-05-10T20:22:33.832Z,12.0
2023-05-10T20:24:33.795Z,11.9
2023-05-10T20:26:33.605Z,12.0
2023-05-10T20:28:33.567Z,12.0
2023-05-10T20:30:33.182Z,11.8
2023-05-10T20:32:33.744Z,12.0
2023-05-10T20:34:34.058Z,11.9
2023-05-10T20:36:32.638Z,11.9
2023-05-10T20:38:32.418Z,11.9
2023-05-10T20:40:32.802Z,11.9
2023-05-10T20:42:42.485Z,11.9
2023-05-10T20:44:31.835Z,11.8
2023-05-10T20:46:32.113Z,11.9
2023-05-10T20:48:31.813Z,11.8
2023-05-10T20:50:31.236Z,11.8
2023-05-10T20:52:31.290Z,11.8
2023-05-10T20:54:30.998Z,11.9
2023-05-10T20:56:30.662Z,11.8
2023-05-10T20:58:30.352Z,11.7
2023-05-10T21:00:30.237Z,11.8
2023-05-10T21:02:30.252Z,11.8
2023-05-10T21:04:29.800Z,11.8
2023-05-10T21:06:30.934Z,11.8
2023-05-10T21:08:29.482Z,11.8
2023-05-10T21:10:29.182Z,11.8
2023-05-10T21:12:29.059Z,11.8
2023-05-10T21:14:29.078Z,11.8
2023-05-10T21:16:28.699Z,11.7
2023-05-10T21:18:28.357Z,11.7
2023-05-10T21:20:28.603Z,11.7
2023-05-10T21:22:27.915Z,11.8
2023-05-10T21:24:28.051Z,11.7
2023-05-10T21:28:27.275Z,11.8
2023-05-10T21:30:27.335Z,11.8
2023-05-10T21:32:27.009Z,11.9
2023-05-10T21:34:26.910Z,11.8
2023-05-10T21:36:26.880Z,11.9
2023-05-10T21:38:26.662Z,11.8
2023-05-10T21:40:27.806Z,11.9
2023-05-10T21:42:25.966Z,11.8
2023-05-10T21:44:25.913Z,11.8
2023-05-10T21:46:25.608Z,11.8
2023-05-10T21:48:25.455Z,11.7
2023-05-10T21:50:26.099Z,11.8
2023-05-10T21:52:25.116Z,11.6
2023-05-10T21:54:25.332Z,11.7
2023-05-10T21:56:24.568Z,11.7
2023-05-10T21:58:24.317Z,11.7
2023-05-10T22:00:24.016Z,11.6
2023-05-10T22:02:24.138Z,11.6
2023-05-10T22:06:23.547Z,11.5
2023-05-10T22:08:23.181Z,11.5
2023-05-10T22:10:23.010Z,11.5
2023-05-10T22:12:22.709Z,11.4
2023-05-10T22:14:22.606Z,11.5
2023-05-10T22:16:22.369Z,11.5
2023-05-10T22:18:22.445Z,11.5
2023-05-10T22:20:22.086Z,11.5
2023-05-10T22:22:21.943Z,11.5
2023-05-10T22:24:21.731Z,11.6
2023-05-10T22:26:22.054Z,11.5
2023-05-10T22:28:21.317Z,11.5
2023-05-10T22:30:21.325Z,11.4
2023-05-10T22:32:20.763Z,11.4
2023-05-10T22:34:20.580Z,11.5
2023-05-10T22:36:20.565Z,11.4
2023-05-10T22:40:21.432Z,11.2
2023-05-10T22:42:19.757Z,11.2
2023-05-10T22:44:19.798Z,11.3
2023-05-10T22:46:19.188Z,11.2
2023-05-10T22:48:19.882Z,11.1
2023-05-10T22:50:20.134Z,11.2
2023-05-10T22:52:20.297Z,11.0
2023-05-10T22:54:18.332Z,11.0
2023-05-10T22:56:18.297Z,11.0
2023-05-10T22:58:18.084Z,11.0
2023-05-10T23:00:18.583Z,11.1
2023-05-10T23:04:17.483Z,11.3
2023-05-10T23:06:17.511Z,11.3
2023-05-10T23:08:16.989Z,11.2
2023-05-10T23:10:16.814Z,11.2
2023-05-10T23:12:16.437Z,11.1
2023-05-10T23:14:16.174Z,11.1
2023-05-10T23:16:16.102Z,11.1
2023-05-10T23:18:16.670Z,10.9
2023-05-10T23:20:16.180Z,11.0
2023-05-10T23:24:15.195Z,11.1
2023-05-10T23:26:15.346Z,11.1
2023-05-10T23:28:14.983Z,11.1
2023-05-10T23:30:14.776Z,11.1
2023-05-10T23:32:14.455Z,11.1
2023-05-10T23:34:14.111Z,11.2
2023-05-10T23:36:13.936Z,11.2
2023-05-10T23:38:14.083Z,11.2
2023-05-10T23:40:14.432Z,11.1
2023-05-10T23:42:13.275Z,10.9
2023-05-10T23:44:13.146Z,10.9
2023-05-10T23:46:13.062Z,11.0
2023-05-10T23:48:12.671Z,11.0
2023-05-10T23:50:12.630Z,11.1
2023-05-10T23:52:13.035Z,11.0
2023-05-10T23:54:12.174Z,11.0
2023-05-10T23:56:11.979Z,11.0
2023-05-10T23:58:11.699Z,11.1
